createdAt,value
2023-12-31T00:00:30.565Z,4.63
2023-12-31T00:03:32.251Z,4.90
2023-12-31T00:06:33.874Z,5.18
2023-12-31T00:09:35.509Z,4.85
2023-12-31T00:12:38.116Z,4.95
2023-12-31T00:15:39.796Z,4.80
2023-12-31T00:18:42.214Z,5.17
2023-12-31T00:21:44.679Z,5.32
2023-12-31T00:24:46.330Z,4.75
2023-12-31T00:27:48.343Z,4.73
2023-12-31T00:30:50.493Z,4.75
2023-12-31T00:33:57.864Z,4.70
2023-12-31T00:37:00.022Z,4.68
2023-12-31T00:40:01.712Z,4.88
2023-12-31T00:43:03.703Z,5.55
2023-12-31T00:46:06.232Z,5.10
2023-12-31T00:49:08.294Z,5.13
2023-12-31T00:52:10.403Z,5.00
2023-12-31T00:55:12.112Z,4.63
2023-12-31T00:58:14.916Z,4.70
2023-12-31T01:01:17.066Z,4.53
2023-12-31T01:04:19.184Z,4.95
2023-12-31T01:07:20.921Z,4.45
2023-12-31T01:10:23.132Z,4.53
2023-12-31T01:13:25.218Z,5.20
2023-12-31T01:16:28.548Z,4.85
2023-12-31T01:19:30.930Z,4.60
2023-12-31T01:22:33.014Z,4.90
2023-12-31T01:25:34.762Z,4.07
2023-12-31T01:28:36.431Z,4.43
2023-12-31T01:31:38.852Z,4.15
2023-12-31T01:34:41.044Z,4.70
2023-12-31T01:37:43.102Z,4.25
2023-12-31T01:40:54.782Z,4.10
2023-12-31T01:44:04.544Z,4.25
2023-12-31T01:47:06.823Z,4.38
2023-12-31T01:50:09.248Z,4.13
2023-12-31T01:53:12.758Z,4.57
2023-12-31T01:56:14.993Z,4.13
2023-12-31T01:59:17.650Z,3.83
2023-12-31T02:02:22.576Z,3.75
2023-12-31T02:05:25.515Z,3.90
2023-12-31T02:08:27.754Z,4.05
2023-12-31T02:11:29.493Z,3.97
2023-12-31T02:14:31.119Z,3.50
2023-12-31T02:17:33.257Z,3.25
2023-12-31T02:20:35.487Z,3.97
2023-12-31T02:23:38.074Z,3.72
2023-12-31T02:26:41.155Z,3.72
2023-12-31T02:29:43.033Z,3.77
2023-12-31T02:32:44.750Z,3.60
2023-12-31T02:35:46.818Z,4.43
2023-12-31T02:38:50.963Z,4.07
2023-12-31T02:41:52.963Z,4.30
2023-12-31T02:44:55.184Z,3.78
2023-12-31T02:47:57.356Z,3.70
2023-12-31T02:50:59.432Z,3.73
2023-12-31T02:54:02.083Z,3.67
2023-12-31T02:57:09.592Z,3.85
2023-12-31T03:00:11.941Z,3.40
2023-12-31T03:03:13.665Z,3.38
2023-12-31T03:06:17.206Z,3.05
2023-12-31T03:09:21.841Z,3.67
2023-12-31T03:12:24.322Z,3.33
2023-12-31T03:15:26.368Z,3.08
2023-12-31T03:18:28.400Z,3.53
2023-12-31T03:21:30.525Z,3.40
2023-12-31T03:24:32.148Z,3.05
2023-12-31T03:27:34.181Z,3.05
2023-12-31T03:30:35.840Z,2.93
2023-12-31T03:33:38.038Z,3.03
2023-12-31T03:36:40.147Z,2.90
2023-12-31T03:39:42.421Z,3.47
2023-12-31T03:42:44.207Z,2.88
2023-12-31T03:45:46.975Z,3.13
2023-12-31T03:48:49.074Z,3.03
2023-12-31T03:51:51.722Z,2.63
2023-12-31T03:54:53.357Z,2.92
2023-12-31T03:57:55.421Z,3.28
2023-12-31T04:00:57.504Z,2.90
2023-12-31T04:03:59.820Z,2.85
2023-12-31T04:07:01.984Z,2.90
2023-12-31T04:10:04.190Z,2.95
2023-12-31T04:13:06.568Z,3.08
2023-12-31T04:16:11.978Z,2.72
2023-12-31T04:19:16.152Z,2.65
2023-12-31T04:22:18.912Z,3.00
2023-12-31T04:25:21.117Z,2.90
2023-12-31T04:28:22.816Z,2.25
2023-12-31T04:31:24.948Z,2.50
2023-12-31T04:34:26.632Z,2.92
2023-12-31T04:37:28.649Z,3.13
2023-12-31T04:40:30.661Z,2.83
2023-12-31T04:43:32.399Z,2.97
2023-12-31T04:46:34.486Z,2.80
2023-12-31T04:49:36.261Z,2.85
2023-12-31T04:52:38.457Z,2.47
2023-12-31T04:55:41.069Z,2.75
2023-12-31T04:58:42.749Z,2.70
2023-12-31T05:01:44.905Z,2.87
2023-12-31T05:04:47.016Z,2.97
2023-12-31T05:07:49.415Z,2.70
2023-12-31T05:10:51.166Z,2.75
2023-12-31T05:13:54.421Z,2.80
2023-12-31T05:16:56.530Z,3.00
2023-12-31T05:19:58.601Z,2.67
2023-12-31T05:23:00.819Z,2.73
2023-12-31T05:26:02.927Z,2.55
2023-12-31T05:29:05.248Z,2.65
2023-12-31T05:32:07.512Z,2.70
2023-12-31T05:35:10.334Z,2.97
2023-12-31T05:38:12.026Z,2.90
2023-12-31T05:41:14.416Z,2.95
2023-12-31T05:44:16.080Z,2.47
2023-12-31T05:47:44.345Z,2.47
2023-12-31T05:50:40.671Z,2.63
2023-12-31T05:53:42.782Z,2.77
2023-12-31T05:56:44.791Z,2.50
2023-12-31T05:59:46.498Z,2.17
2023-12-31T06:02:48.141Z,2.40
2023-12-31T06:05:50.922Z,2.60
2023-12-31T06:08:52.640Z,2.42
2023-12-31T06:11:55.444Z,2.90
2023-12-31T06:14:57.051Z,2.63
2023-12-31T06:17:59.246Z,2.67
2023-12-31T06:21:01.352Z,2.38
2023-12-31T06:24:03.527Z,2.37
2023-12-31T06:27:05.985Z,2.42
2023-12-31T06:30:08.496Z,2.50
2023-12-31T06:33:10.321Z,2.60
2023-12-31T06:36:12.131Z,2.38
2023-12-31T06:39:14.608Z,2.47
2023-12-31T06:42:16.293Z,2.40
2023-12-31T06:45:18.770Z,2.33
2023-12-31T06:48:20.955Z,2.58
2023-12-31T06:51:22.861Z,2.35
2023-12-31T06:54:24.922Z,3.13
2023-12-31T06:57:26.939Z,2.35
2023-12-31T07:00:28.991Z,2.38
2023-12-31T07:03:30.646Z,2.17
2023-12-31T07:06:32.688Z,2.40
2023-12-31T07:09:34.447Z,2.38
2023-12-31T07:12:36.125Z,2.97
2023-12-31T07:15:38.399Z,2.78
2023-12-31T07:18:40.119Z,3.00
2023-12-31T07:21:41.818Z,2.90
2023-12-31T07:24:43.432Z,2.97
2023-12-31T07:27:45.475Z,3.38
2023-12-31T07:30:48.395Z,4.68
2023-12-31T07:33:51.546Z,4.40
2023-12-31T07:36:53.183Z,5.75
2023-12-31T07:39:54.856Z,4.95
2023-12-31T07:42:57.282Z,5.68
2023-12-31T07:45:59.871Z,5.30
2023-12-31T07:49:01.565Z,5.30
2023-12-31T07:52:03.928Z,5.50
2023-12-31T07:55:10.154Z,5.07
2023-12-31T07:58:11.919Z,4.47
2023-12-31T08:01:13.724Z,4.40
2023-12-31T08:04:15.648Z,4.53
2023-12-31T08:07:18.309Z,4.30
2023-12-31T08:10:20.358Z,3.80
2023-12-31T08:13:22.903Z,3.85
2023-12-31T08:16:24.607Z,3.53
2023-12-31T08:19:26.733Z,4.03
2023-12-31T08:22:28.519Z,4.53
2023-12-31T08:25:30.189Z,5.60
2023-12-31T08:28:32.096Z,5.60
2023-12-31T08:31:33.763Z,5.63
2023-12-31T08:34:35.511Z,6.07
2023-12-31T08:37:38.093Z,6.53
2023-12-31T08:40:40.265Z,6.32
2023-12-31T08:43:42.429Z,5.35
2023-12-31T08:46:44.208Z,5.80
2023-12-31T08:49:46.343Z,5.60
2023-12-31T08:52:48.300Z,5.35
2023-12-31T08:55:52.167Z,6.37
2023-12-31T08:58:53.964Z,5.75
2023-12-31T09:01:56.811Z,6.38
2023-12-31T09:04:58.957Z,6.13
2023-12-31T09:08:03.350Z,5.60
2023-12-31T09:11:06.115Z,5.22
2023-12-31T09:14:08.145Z,5.93
2023-12-31T09:17:10.285Z,5.35
2023-12-31T09:20:12.177Z,5.18
2023-12-31T09:23:14.724Z,5.70
2023-12-31T09:26:16.450Z,4.53
2023-12-31T09:29:18.935Z,4.10
2023-12-31T09:32:21.050Z,4.70
2023-12-31T09:35:23.143Z,6.00
2023-12-31T09:38:25.149Z,6.00
2023-12-31T09:41:28.054Z,5.55
2023-12-31T09:44:30.363Z,6.43
2023-12-31T09:47:33.301Z,5.47
2023-12-31T09:50:35.331Z,5.07
2023-12-31T09:53:40.375Z,5.15
2023-12-31T09:56:44.108Z,4.90
2023-12-31T09:59:49.673Z,5.30
2023-12-31T10:02:54.697Z,5.75
2023-12-31T10:05:58.188Z,4.63
2023-12-31T10:09:01.243Z,4.60
2023-12-31T10:12:02.894Z,3.45
2023-12-31T10:15:05.503Z,4.10
2023-12-31T10:18:09.371Z,3.75
2023-12-31T10:21:12.643Z,3.70
2023-12-31T10:24:14.795Z,3.95
2023-12-31T10:27:17.347Z,5.10
2023-12-31T10:30:20.211Z,6.65
2023-12-31T10:33:30.181Z,6.07
2023-12-31T10:36:34.632Z,6.53
2023-12-31T10:39:38.004Z,6.55
2023-12-31T10:42:40.581Z,4.38
2023-12-31T10:45:42.742Z,4.20
2023-12-31T10:49:04.871Z,3.60
2023-12-31T10:52:07.184Z,3.58
2023-12-31T10:55:13.912Z,3.60
2023-12-31T10:58:17.650Z,3.50
2023-12-31T11:01:19.769Z,3.60
2023-12-31T11:04:22.972Z,3.13
2023-12-31T11:07:28.210Z,3.77
2023-12-31T11:10:31.243Z,3.53
2023-12-31T11:13:34.682Z,3.58
2023-12-31T11:17:04.533Z,3.60
2023-12-31T11:20:41.881Z,3.90
2023-12-31T11:24:00.509Z,4.70
2023-12-31T11:27:32.318Z,4.78
2023-12-31T11:30:54.379Z,3.93
2023-12-31T11:33:56.577Z,4.10
2023-12-31T11:37:01.824Z,4.43
2023-12-31T11:40:05.934Z,4.67
2023-12-31T11:43:14.832Z,3.78
2023-12-31T11:46:39.721Z,3.70
2023-12-31T11:50:14.912Z,3.83
2023-12-31T11:53:17.327Z,3.88
2023-12-31T11:56:31.816Z,3.67
2023-12-31T11:59:37.660Z,5.72
2023-12-31T12:02:39.379Z,5.50
2023-12-31T12:05:41.129Z,6.95
2023-12-31T12:08:43.239Z,4.43
2023-12-31T12:11:45.300Z,4.13
2023-12-31T12:14:50.604Z,4.22
2023-12-31T12:17:53.475Z,3.90
2023-12-31T12:20:56.792Z,4.53
2023-12-31T12:23:58.571Z,4.20
2023-12-31T12:27:05.667Z,2.63
2023-12-31T12:30:10.313Z,3.10
2023-12-31T12:33:15.937Z,2.50
2023-12-31T12:36:19.182Z,2.50
2023-12-31T12:39:21.763Z,2.53
2023-12-31T12:42:27.365Z,2.80
2023-12-31T12:45:34.074Z,2.92
2023-12-31T12:48:41.581Z,2.85
2023-12-31T12:51:45.430Z,2.80
2023-12-31T12:54:47.065Z,2.90
2023-12-31T12:57:49.324Z,2.90
2023-12-31T13:00:50.963Z,3.05
2023-12-31T13:03:53.436Z,3.17
2023-12-31T13:06:59.088Z,2.75
2023-12-31T13:10:01.513Z,2.67
2023-12-31T13:13:04.708Z,2.40
2023-12-31T13:16:13.136Z,2.90
2023-12-31T13:19:21.471Z,2.92
2023-12-31T13:22:23.323Z,2.70
2023-12-31T13:25:25.619Z,2.30
2023-12-31T13:28:28.892Z,2.10
2023-12-31T13:31:31.078Z,2.10
2023-12-31T13:34:32.699Z,2.13
2023-12-31T13:37:34.766Z,1.70
2023-12-31T13:40:36.925Z,2.20
2023-12-31T13:43:39.047Z,2.60
2023-12-31T13:46:41.141Z,2.63
2023-12-31T13:49:42.836Z,2.75
2023-12-31T13:52:53.047Z,2.95
2023-12-31T13:55:55.173Z,3.20
2023-12-31T13:58:58.758Z,4.28
2023-12-31T14:02:00.622Z,5.55
2023-12-31T14:05:02.377Z,13.00
2023-12-31T14:08:04.517Z,14.15
2023-12-31T14:11:07.420Z,5.63
2023-12-31T14:14:10.685Z,3.67
2023-12-31T14:17:12.575Z,3.40
2023-12-31T14:20:14.378Z,4.10
2023-12-31T14:23:16.743Z,2.83
2023-12-31T14:26:18.824Z,3.00
2023-12-31T14:29:20.480Z,2.22
2023-12-31T14:32:22.337Z,14.27
2023-12-31T14:35:24.922Z,2.50
2023-12-31T14:38:27.012Z,2.35
2023-12-31T14:41:28.747Z,2.70
2023-12-31T14:44:30.874Z,2.30
2023-12-31T14:47:32.588Z,2.75
2023-12-31T14:50:36.025Z,3.13
2023-12-31T14:53:38.127Z,3.50
2023-12-31T14:56:40.206Z,5.50
2023-12-31T14:59:42.291Z,2.80
2023-12-31T15:02:44.354Z,4.22
2023-12-31T15:05:46.454Z,2.53
2023-12-31T15:08:54.141Z,2.80
2023-12-31T15:11:55.832Z,2.78
2023-12-31T15:14:58.347Z,3.23
2023-12-31T15:18:00.192Z,5.38
2023-12-31T15:21:01.972Z,3.72
2023-12-31T15:24:04.925Z,3.65
2023-12-31T15:27:07.613Z,3.10
2023-12-31T15:30:10.543Z,3.30
2023-12-31T15:33:12.427Z,2.97
2023-12-31T15:36:16.989Z,2.57
2023-12-31T15:39:20.500Z,2.50
2023-12-31T15:42:23.498Z,3.55
2023-12-31T15:45:26.551Z,2.67
2023-12-31T15:48:28.338Z,2.03
2023-12-31T15:51:30.232Z,2.20
2023-12-31T15:54:32.556Z,2.42
2023-12-31T15:57:34.175Z,2.45
2023-12-31T16:00:36.389Z,2.20
2023-12-31T16:03:38.143Z,3.67
2023-12-31T16:06:40.190Z,4.20
2023-12-31T16:09:42.315Z,4.00
2023-12-31T16:12:44.350Z,3.90
2023-12-31T16:15:45.984Z,3.50
2023-12-31T16:18:48.048Z,2.40
2023-12-31T16:21:49.870Z,1.85
2023-12-31T16:24:52.022Z,1.63
2023-12-31T16:27:54.024Z,1.70
2023-12-31T16:30:56.235Z,1.38
2023-12-31T16:33:59.060Z,1.20
2023-12-31T16:37:01.152Z,1.00
2023-12-31T16:40:03.701Z,1.40
2023-12-31T16:43:09.528Z,1.30
2023-12-31T16:46:11.526Z,1.00
2023-12-31T16:49:13.275Z,1.70
2023-12-31T16:52:14.991Z,1.02
2023-12-31T16:55:17.203Z,1.52
2023-12-31T16:58:19.383Z,1.30
2023-12-31T17:01:21.996Z,1.10
2023-12-31T17:04:23.812Z,1.00
2023-12-31T17:07:25.493Z,0.80
2023-12-31T17:10:27.591Z,1.60
2023-12-31T17:13:29.746Z,1.60
2023-12-31T17:16:31.426Z,1.47
2023-12-31T17:19:33.132Z,1.40
2023-12-31T17:22:36.439Z,1.20
2023-12-31T17:25:38.523Z,1.10
2023-12-31T17:28:40.556Z,0.95
2023-12-31T17:31:42.712Z,0.90
2023-12-31T17:34:44.399Z,1.20
2023-12-31T17:37:46.683Z,1.80
2023-12-31T17:40:50.471Z,1.58
2023-12-31T17:43:52.254Z,2.50
2023-12-31T17:46:54.372Z,1.40
2023-12-31T17:49:56.111Z,1.40
2023-12-31T17:52:59.706Z,1.38
2023-12-31T17:56:02.132Z,1.02
2023-12-31T17:59:04.032Z,1.58
2023-12-31T18:02:05.802Z,2.50
2023-12-31T18:05:07.885Z,5.10
2023-12-31T18:08:10.101Z,5.70
2023-12-31T18:11:11.782Z,2.90
2023-12-31T18:14:13.418Z,3.10
2023-12-31T18:17:16.057Z,2.77
2023-12-31T18:20:18.281Z,1.70
2023-12-31T18:23:20.475Z,1.85
2023-12-31T18:26:24.043Z,1.40
2023-12-31T18:29:26.172Z,2.45
2023-12-31T18:32:28.037Z,2.80
2023-12-31T18:35:29.755Z,2.00
2023-12-31T18:38:31.409Z,2.40
2023-12-31T18:41:33.044Z,1.60
2023-12-31T18:44:35.582Z,1.52
2023-12-31T18:47:37.282Z,2.03
2023-12-31T18:50:39.402Z,2.13
2023-12-31T18:53:41.083Z,1.33
2023-12-31T18:56:43.958Z,1.40
2023-12-31T18:59:45.985Z,1.60
2023-12-31T19:02:47.661Z,1.60
2023-12-31T19:05:49.770Z,2.10
2023-12-31T19:08:51.875Z,2.13
2023-12-31T19:11:53.960Z,2.50
2023-12-31T19:15:00.850Z,2.30
2023-12-31T19:18:05.610Z,3.10
2023-12-31T19:21:07.521Z,3.13
2023-12-31T19:24:09.240Z,2.80
2023-12-31T19:27:10.885Z,3.28
2023-12-31T19:30:12.892Z,2.92
2023-12-31T19:33:15.204Z,2.72
2023-12-31T19:36:17.384Z,2.47
2023-12-31T19:39:19.493Z,3.13
2023-12-31T19:42:21.184Z,2.50
2023-12-31T19:45:24.455Z,1.90
2023-12-31T19:48:27.566Z,3.30
2023-12-31T19:51:30.218Z,2.83
2023-12-31T19:54:31.935Z,1.75
2023-12-31T19:57:33.725Z,2.00
2023-12-31T20:00:36.470Z,1.70
2023-12-31T20:03:46.125Z,1.90
2023-12-31T20:06:48.285Z,2.00
2023-12-31T20:09:52.809Z,1.80
2023-12-31T20:12:54.462Z,2.40
2023-12-31T20:15:57.898Z,2.42
2023-12-31T20:18:59.576Z,2.30
2023-12-31T20:22:01.711Z,1.70
2023-12-31T20:25:04.903Z,2.15
2023-12-31T20:28:07.248Z,2.50
2023-12-31T20:31:08.871Z,2.17
2023-12-31T20:34:10.845Z,2.90
2023-12-31T20:37:13.049Z,3.10
2023-12-31T20:40:15.087Z,2.73
2023-12-31T20:43:17.295Z,3.00
2023-12-31T20:46:19.957Z,3.22
2023-12-31T20:49:22.046Z,2.77
2023-12-31T20:52:24.169Z,3.05
2023-12-31T20:55:27.795Z,3.53
2023-12-31T20:58:29.524Z,3.20
2023-12-31T21:01:32.322Z,4.47
2023-12-31T21:04:35.431Z,3.80
2023-12-31T21:07:38.191Z,3.72
2023-12-31T21:10:39.920Z,3.90
2023-12-31T21:13:42.565Z,3.03
2023-12-31T21:16:45.619Z,2.60
2023-12-31T21:19:47.970Z,2.33
2023-12-31T21:22:50.103Z,2.92
2023-12-31T21:25:52.011Z,2.75
2023-12-31T21:28:56.163Z,3.30
2023-12-31T21:31:58.886Z,3.08
2023-12-31T21:35:00.589Z,3.08
2023-12-31T21:38:02.404Z,2.63
2023-12-31T21:41:04.266Z,2.93
2023-12-31T21:44:12.852Z,2.33
2023-12-31T21:47:15.753Z,3.05
2023-12-31T21:50:18.385Z,2.87
2023-12-31T21:53:20.558Z,2.40
2023-12-31T21:56:46.877Z,2.33
2023-12-31T21:59:49.036Z,2.33
2023-12-31T22:02:52.404Z,2.33
2023-12-31T22:05:54.134Z,2.08
2023-12-31T22:08:55.761Z,2.38
2023-12-31T22:11:58.810Z,2.90
2023-12-31T22:15:01.294Z,3.65
2023-12-31T22:18:03.820Z,2.75
2023-12-31T22:21:05.651Z,4.60
2023-12-31T22:24:07.850Z,4.57
2023-12-31T22:27:10.290Z,4.43
2023-12-31T22:30:13.363Z,3.80
2023-12-31T22:33:15.790Z,3.72
2023-12-31T22:36:18.749Z,3.88
2023-12-31T22:39:21.335Z,4.60
2023-12-31T22:42:22.936Z,4.60
2023-12-31T22:45:25.032Z,4.30
2023-12-31T22:48:27.185Z,4.13
2023-12-31T22:51:28.853Z,3.60
2023-12-31T22:54:30.443Z,2.72
2023-12-31T22:57:32.348Z,3.47
2023-12-31T23:00:34.050Z,5.05
2023-12-31T23:03:36.115Z,21.88
2023-12-31T23:06:38.203Z,51.65
2023-12-31T23:09:39.866Z,58.63
2023-12-31T23:12:42.415Z,62.77
2023-12-31T23:15:45.506Z,93.47
2023-12-31T23:18:48.436Z,127.60
2023-12-31T23:21:50.123Z,134.07
2023-12-31T23:24:52.592Z,96.60
2023-12-31T23:27:54.211Z,71.03
2023-12-31T23:30:56.086Z,68.82
2023-12-31T23:33:58.203Z,51.30
2023-12-31T23:37:05.629Z,41.80
2023-12-31T23:40:10.122Z,25.80
2023-12-31T23:43:11.862Z,21.17
2023-12-31T23:46:13.539Z,16.27
2023-12-31T23:49:15.233Z,13.32
2023-12-31T23:52:17.773Z,11.63
2023-12-31T23:55:20.780Z,9.50
2023-12-31T23:58:23.996Z,8.23
